sensor_id;sensor_type;location;lat;lon;timestamp;P1;durP1;ratioP1;P2;durP2;ratioP2
62711;SDS011;48772;55.586;37.730;2022-09-09T00:00:14;2.90;;;1.80;;
62711;SDS011;48772;55.586;37.730;2022-09-09T00:02:41;4.55;;;1.77;;
62711;SDS011;48772;55.586;37.730;2022-09-09T00:07:53;2.42;;;1.50;;
62711;SDS011;48772;55.586;37.730;2022-09-09T00:13:20;2.78;;;1.58;;
62711;SDS011;48772;55.586;37.730;2022-09-09T00:15:46;2.22;;;1.35;;
62711;SDS011;48772;55.586;37.730;2022-09-09T00:21:01;2.10;;;1.90;;
62711;SDS011;48772;55.586;37.730;2022-09-09T00:23:37;2.83;;;1.60;;
62711;SDS011;48772;55.586;37.730;2022-09-09T00:29:05;1.95;;;1.80;;
62711;SDS011;48772;55.586;37.730;2022-09-09T00:31:34;2.28;;;1.60;;
62711;SDS011;48772;55.586;37.730;2022-09-09T00:34:02;1.92;;;1.60;;
62711;SDS011;48772;55.586;37.730;2022-09-09T00:36:33;3.20;;;1.35;;
62711;SDS011;48772;55.586;37.730;2022-09-09T00:39:01;3.17;;;1.60;;
62711;SDS011;48772;55.586;37.730;2022-09-09T00:44:50;2.22;;;1.42;;
62711;SDS011;48772;55.586;37.730;2022-09-09T00:46:56;2.42;;;1.40;;
62711;SDS011;48772;55.586;37.730;2022-09-09T00:49:34;2.00;;;1.50;;
62711;SDS011;48772;55.586;37.730;2022-09-09T01:04:48;1.63;;;1.50;;
62711;SDS011;48772;55.586;37.730;2022-09-09T01:07:16;3.72;;;1.67;;
62711;SDS011;48772;55.586;37.730;2022-09-09T01:09:54;4.55;;;1.45;;
62711;SDS011;48772;55.586;37.730;2022-09-09T01:12:33;5.07;;;1.98;;
62711;SDS011;48772;55.586;37.730;2022-09-09T01:15:07;2.42;;;1.45;;
62711;SDS011;48772;55.586;37.730;2022-09-09T01:17:49;2.65;;;1.75;;
62711;SDS011;48772;55.586;37.730;2022-09-09T01:20:20;5.55;;;1.60;;
62711;SDS011;48772;55.586;37.730;2022-09-09T01:28:22;4.07;;;1.63;;
62711;SDS011;48772;55.586;37.730;2022-09-09T01:30:51;6.55;;;1.98;;
62711;SDS011;48772;55.586;37.730;2022-09-09T01:33:21;1.83;;;1.60;;
62711;SDS011;48772;55.586;37.730;2022-09-09T01:35:52;4.95;;;1.60;;
62711;SDS011;48772;55.586;37.730;2022-09-09T01:38:26;2.97;;;1.70;;
62711;SDS011;48772;55.586;37.730;2022-09-09T01:40:53;2.60;;;1.77;;
62711;SDS011;48772;55.586;37.730;2022-09-09T01:43:23;3.25;;;1.75;;
62711;SDS011;48772;55.586;37.730;2022-09-09T01:45:50;4.70;;;1.88;;
62711;SDS011;48772;55.586;37.730;2022-09-09T01:48:18;4.32;;;1.75;;
62711;SDS011;48772;55.586;37.730;2022-09-09T01:50:50;5.55;;;1.80;;
62711;SDS011;48772;55.586;37.730;2022-09-09T01:53:17;2.67;;;1.73;;
62711;SDS011;48772;55.586;37.730;2022-09-09T02:01:11;2.38;;;1.90;;
62711;SDS011;48772;55.586;37.730;2022-09-09T02:03:41;6.28;;;2.42;;
62711;SDS011;48772;55.586;37.730;2022-09-09T02:06:26;3.08;;;2.00;;
62711;SDS011;48772;55.586;37.730;2022-09-09T02:08:59;4.07;;;1.63;;
62711;SDS011;48772;55.586;37.730;2022-09-09T02:11:27;3.33;;;1.80;;
62711;SDS011;48772;55.586;37.730;2022-09-09T02:14:04;2.03;;;1.70;;
62711;SDS011;48772;55.586;37.730;2022-09-09T02:16:38;2.28;;;1.65;;
62711;SDS011;48772;55.586;37.730;2022-09-09T02:19:49;2.35;;;1.77;;
62711;SDS011;48772;55.586;37.730;2022-09-09T02:22:07;6.82;;;1.98;;
62711;SDS011;48772;55.586;37.730;2022-09-09T02:24:34;3.97;;;1.73;;
62711;SDS011;48772;55.586;37.730;2022-09-09T02:27:26;3.22;;;1.75;;
62711;SDS011;48772;55.586;37.730;2022-09-09T02:29:53;2.47;;;1.85;;
62711;SDS011;48772;55.586;37.730;2022-09-09T02:32:32;3.53;;;2.13;;
62711;SDS011;48772;55.586;37.730;2022-09-09T02:35:05;3.08;;;2.10;;
62711;SDS011;48772;55.586;37.730;2022-09-09T02:37:34;4.00;;;2.10;;
62711;SDS011;48772;55.586;37.730;2022-09-09T02:40:05;6.20;;;2.40;;
62711;SDS011;48772;55.586;37.730;2022-09-09T02:42:38;2.20;;;1.92;;
62711;SDS011;48772;55.586;37.730;2022-09-09T02:45:03;3.55;;;2.03;;
62711;SDS011;48772;55.586;37.730;2022-09-09T02:47:31;3.72;;;2.22;;
62711;SDS011;48772;55.586;37.730;2022-09-09T02:50:12;6.88;;;2.10;;
62711;SDS011;48772;55.586;37.730;2022-09-09T02:52:42;5.13;;;2.35;;
62711;SDS011;48772;55.586;37.730;2022-09-09T02:57:58;3.67;;;2.42;;
62711;SDS011;48772;55.586;37.730;2022-09-09T03:00:27;9.00;;;3.13;;
62711;SDS011;48772;55.586;37.730;2022-09-09T03:02:56;3.15;;;2.60;;
62711;SDS011;48772;55.586;37.730;2022-09-09T03:05:21;4.53;;;2.60;;
62711;SDS011;48772;55.586;37.730;2022-09-09T03:07:47;4.80;;;2.60;;
62711;SDS011;48772;55.586;37.730;2022-09-09T03:10:16;4.32;;;2.83;;
62711;SDS011;48772;55.586;37.730;2022-09-09T03:12:42;2.67;;;2.28;;
62711;SDS011;48772;55.586;37.730;2022-09-09T03:15:08;3.60;;;2.22;;
62711;SDS011;48772;55.586;37.730;2022-09-09T03:17:35;3.50;;;2.00;;
62711;SDS011;48772;55.586;37.730;2022-09-09T03:20:04;3.45;;;2.30;;
62711;SDS011;48772;55.586;37.730;2022-09-09T03:22:30;3.45;;;2.30;;
62711;SDS011;48772;55.586;37.730;2022-09-09T03:24:58;5.63;;;2.40;;
62711;SDS011;48772;55.586;37.730;2022-09-09T03:27:24;3.83;;;2.25;;
62711;SDS011;48772;55.586;37.730;2022-09-09T03:29:50;3.85;;;2.30;;
62711;SDS011;48772;55.586;37.730;2022-09-09T03:32:19;4.25;;;2.33;;
62711;SDS011;48772;55.586;37.730;2022-09-09T03:34:47;2.35;;;2.05;;
62711;SDS011;48772;55.586;37.730;2022-09-09T03:37:21;9.00;;;3.17;;
62711;SDS011;48772;55.586;37.730;2022-09-09T03:39:49;4.45;;;2.30;;
62711;SDS011;48772;55.586;37.730;2022-09-09T03:42:16;4.32;;;2.42;;
62711;SDS011;48772;55.586;37.730;2022-09-09T03:44:46;6.80;;;2.58;;
62711;SDS011;48772;55.586;37.730;2022-09-09T03:47:16;6.53;;;2.53;;
62711;SDS011;48772;55.586;37.730;2022-09-09T03:49:42;5.05;;;2.42;;
62711;SDS011;48772;55.586;37.730;2022-09-09T03:52:08;8.73;;;2.60;;
62711;SDS011;48772;55.586;37.730;2022-09-09T03:54:34;3.75;;;2.60;;
62711;SDS011;48772;55.586;37.730;2022-09-09T03:57:00;5.43;;;2.72;;
62711;SDS011;48772;55.586;37.730;2022-09-09T03:59:25;3.45;;;2.65;;
62711;SDS011;48772;55.586;37.730;2022-09-09T04:01:51;4.38;;;2.78;;
62711;SDS011;48772;55.586;37.730;2022-09-09T04:04:23;7.97;;;3.05;;
62711;SDS011;48772;55.586;37.730;2022-09-09T04:06:48;5.78;;;3.50;;
62711;SDS011;48772;55.586;37.730;2022-09-09T04:09:14;6.93;;;2.60;;
62711;SDS011;48772;55.586;37.730;2022-09-09T04:11:41;6.15;;;2.78;;
62711;SDS011;48772;55.586;37.730;2022-09-09T04:14:07;6.72;;;2.90;;
62711;SDS011;48772;55.586;37.730;2022-09-09T04:16:33;6.78;;;3.17;;
62711;SDS011;48772;55.586;37.730;2022-09-09T04:19:01;6.32;;;2.78;;
62711;SDS011;48772;55.586;37.730;2022-09-09T04:21:29;2.95;;;1.92;;
62711;SDS011;48772;55.586;37.730;2022-09-09T04:23:55;7.68;;;2.33;;
62711;SDS011;48772;55.586;37.730;2022-09-09T04:26:21;5.18;;;2.35;;
62711;SDS011;48772;55.586;37.730;2022-09-09T04:28:47;3.25;;;2.35;;
62711;SDS011;48772;55.586;37.730;2022-09-09T04:31:18;5.72;;;2.40;;
62711;SDS011;48772;55.586;37.730;2022-09-09T04:33:44;4.00;;;2.25;;
62711;SDS011;48772;55.586;37.730;2022-09-09T04:36:12;4.95;;;2.30;;
62711;SDS011;48772;55.586;37.730;2022-09-09T04:38:37;5.88;;;2.50;;
62711;SDS011;48772;55.586;37.730;2022-09-09T04:41:03;8.13;;;2.53;;
62711;SDS011;48772;55.586;37.730;2022-09-09T04:43:31;5.55;;;2.35;;
62711;SDS011;48772;55.586;37.730;2022-09-09T04:45:57;3.42;;;2.35;;
62711;SDS011;48772;55.586;37.730;2022-09-09T04:48:29;5.10;;;1.95;;
62711;SDS011;48772;55.586;37.730;2022-09-09T04:50:58;6.25;;;2.42;;
62711;SDS011;48772;55.586;37.730;2022-09-09T04:53:24;5.43;;;2.40;;
62711;SDS011;48772;55.586;37.730;2022-09-09T04:55:52;5.47;;;2.28;;
62711;SDS011;48772;55.586;37.730;2022-09-09T04:58:18;4.57;;;2.40;;
62711;SDS011;48772;55.586;37.730;2022-09-09T05:00:47;6.05;;;2.38;;
62711;SDS011;48772;55.586;37.730;2022-09-09T05:03:13;2.50;;;2.20;;
62711;SDS011;48772;55.586;37.730;2022-09-09T05:05:39;4.70;;;2.20;;
62711;SDS011;48772;55.586;37.730;2022-09-09T05:08:05;4.28;;;2.00;;
62711;SDS011;48772;55.586;37.730;2022-09-09T05:10:31;2.50;;;2.30;;
62711;SDS011;48772;55.586;37.730;2022-09-09T05:12:58;4.75;;;2.50;;
62711;SDS011;48772;55.586;37.730;2022-09-09T05:15:27;4.30;;;1.88;;
62711;SDS011;48772;55.586;37.730;2022-09-09T05:17:56;5.93;;;2.20;;
62711;SDS011;48772;55.586;37.730;2022-09-09T05:20:22;2.45;;;2.20;;
62711;SDS011;48772;55.586;37.730;2022-09-09T05:22:47;7.18;;;2.22;;
62711;SDS011;48772;55.586;37.730;2022-09-09T05:25:14;7.85;;;2.38;;
62711;SDS011;48772;55.586;37.730;2022-09-09T05:27:40;3.28;;;2.20;;
62711;SDS011;48772;55.586;37.730;2022-09-09T05:30:06;3.92;;;2.05;;
62711;SDS011;48772;55.586;37.730;2022-09-09T05:32:33;2.28;;;2.08;;
62711;SDS011;48772;55.586;37.730;2022-09-09T05:34:59;4.15;;;2.30;;
62711;SDS011;48772;55.586;37.730;2022-09-09T05:37:25;3.90;;;2.20;;
62711;SDS011;48772;55.586;37.730;2022-09-09T05:39:51;4.03;;;2.20;;
62711;SDS011;48772;55.586;37.730;2022-09-09T05:42:16;2.25;;;1.90;;
62711;SDS011;48772;55.586;37.730;2022-09-09T05:44:43;5.35;;;1.98;;
62711;SDS011;48772;55.586;37.730;2022-09-09T05:47:11;6.20;;;1.92;;
62711;SDS011;48772;55.586;37.730;2022-09-09T05:49:37;10.73;;;2.10;;
62711;SDS011;48772;55.586;37.730;2022-09-09T05:52:03;5.70;;;2.30;;
62711;SDS011;48772;55.586;37.730;2022-09-09T05:54:29;2.85;;;2.00;;
62711;SDS011;48772;55.586;37.730;2022-09-09T05:56:55;5.28;;;2.00;;
62711;SDS011;48772;55.586;37.730;2022-09-09T05:59:21;4.30;;;1.65;;
62711;SDS011;48772;55.586;37.730;2022-09-09T06:01:50;2.58;;;1.70;;
62711;SDS011;48772;55.586;37.730;2022-09-09T06:04:24;7.82;;;2.05;;
62711;SDS011;48772;55.586;37.730;2022-09-09T06:06:50;3.78;;;1.92;;
62711;SDS011;48772;55.586;37.730;2022-09-09T06:09:17;5.93;;;1.77;;
62711;SDS011;48772;55.586;37.730;2022-09-09T06:11:43;2.35;;;1.80;;
62711;SDS011;48772;55.586;37.730;2022-09-09T06:14:10;2.65;;;1.90;;
62711;SDS011;48772;55.586;37.730;2022-09-09T06:16:37;4.32;;;1.55;;
62711;SDS011;48772;55.586;37.730;2022-09-09T06:19:14;1.98;;;1.60;;
62711;SDS011;48772;55.586;37.730;2022-09-09T06:21:40;5.50;;;1.90;;
62711;SDS011;48772;55.586;37.730;2022-09-09T06:24:07;4.05;;;1.60;;
62711;SDS011;48772;55.586;37.730;2022-09-09T06:26:34;3.35;;;1.40;;
62711;SDS011;48772;55.586;37.730;2022-09-09T06:29:01;2.08;;;1.50;;
62711;SDS011;48772;55.586;37.730;2022-09-09T06:31:29;2.70;;;1.60;;
62711;SDS011;48772;55.586;37.730;2022-09-09T06:34:05;2.33;;;1.65;;
62711;SDS011;48772;55.586;37.730;2022-09-09T06:36:31;3.92;;;1.38;;
62711;SDS011;48772;55.586;37.730;2022-09-09T06:38:57;3.92;;;1.63;;
62711;SDS011;48772;55.586;37.730;2022-09-09T06:41:24;2.20;;;1.38;;
62711;SDS011;48772;55.586;37.730;2022-09-09T06:43:51;3.00;;;1.15;;
62711;SDS011;48772;55.586;37.730;2022-09-09T06:46:24;1.85;;;1.30;;
62711;SDS011;48772;55.586;37.730;2022-09-09T06:48:53;4.18;;;1.20;;
62711;SDS011;48772;55.586;37.730;2022-09-09T06:51:21;1.08;;;0.98;;
62711;SDS011;48772;55.586;37.730;2022-09-09T06:53:49;2.30;;;1.20;;
62711;SDS011;48772;55.586;37.730;2022-09-09T06:56:28;2.35;;;1.00;;
62711;SDS011;48772;55.586;37.730;2022-09-09T06:58:56;2.50;;;0.90;;
62711;SDS011;48772;55.586;37.730;2022-09-09T07:01:27;1.88;;;0.82;;
62711;SDS011;48772;55.586;37.730;2022-09-09T07:03:56;0.88;;;0.88;;
62711;SDS011;48772;55.586;37.730;2022-09-09T07:06:23;6.05;;;1.20;;
62711;SDS011;48772;55.586;37.730;2022-09-09T07:08:54;1.77;;;1.02;;
62711;SDS011;48772;55.586;37.730;2022-09-09T07:11:22;2.83;;;0.88;;
62711;SDS011;48772;55.586;37.730;2022-09-09T07:13:48;0.80;;;0.80;;
62711;SDS011;48772;55.586;37.730;2022-09-09T07:16:16;3.17;;;1.00;;
62711;SDS011;48772;55.586;37.730;2022-09-09T07:18:42;0.80;;;0.80;;
62711;SDS011;48772;55.586;37.730;2022-09-09T07:21:08;0.75;;;0.70;;
62711;SDS011;48772;55.586;37.730;2022-09-09T07:23:34;4.18;;;0.85;;
62711;SDS011;48772;55.586;37.730;2022-09-09T07:26:01;1.60;;;0.90;;
62711;SDS011;48772;55.586;37.730;2022-09-09T07:28:27;1.10;;;1.00;;
62711;SDS011;48772;55.586;37.730;2022-09-09T07:30:57;0.98;;;0.90;;
62711;SDS011;48772;55.586;37.730;2022-09-09T07:33:24;0.90;;;0.80;;
62711;SDS011;48772;55.586;37.730;2022-09-09T07:35:50;1.48;;;0.90;;
62711;SDS011;48772;55.586;37.730;2022-09-09T07:38:16;3.92;;;1.00;;
62711;SDS011;48772;55.586;37.730;2022-09-09T07:40:42;2.60;;;1.10;;
62711;SDS011;48772;55.586;37.730;2022-09-09T07:43:07;2.22;;;1.10;;
62711;SDS011;48772;55.586;37.730;2022-09-09T07:45:34;1.85;;;1.10;;
62711;SDS011;48772;55.586;37.730;2022-09-09T07:48:01;1.98;;;1.13;;
62711;SDS011;48772;55.586;37.730;2022-09-09T07:50:29;2.25;;;1.20;;
62711;SDS011;48772;55.586;37.730;2022-09-09T07:52:54;0.88;;;0.70;;
62711;SDS011;48772;55.586;37.730;2022-09-09T07:55:21;2.45;;;0.90;;
62711;SDS011;48772;55.586;37.730;2022-09-09T07:57:46;2.90;;;0.90;;
62711;SDS011;48772;55.586;37.730;2022-09-09T08:00:14;3.08;;;0.82;;
62711;SDS011;48772;55.586;37.730;2022-09-09T08:02:43;2.97;;;0.93;;
62711;SDS011;48772;55.586;37.730;2022-09-09T08:05:10;1.67;;;0.85;;
62711;SDS011;48772;55.586;37.730;2022-09-09T08:07:36;2.63;;;0.80;;
62711;SDS011;48772;55.586;37.730;2022-09-09T08:10:03;1.83;;;0.80;;
62711;SDS011;48772;55.586;37.730;2022-09-09T08:12:31;2.47;;;0.90;;
62711;SDS011;48772;55.586;37.730;2022-09-09T08:14:58;0.75;;;0.75;;
62711;SDS011;48772;55.586;37.730;2022-09-09T08:17:29;1.40;;;0.70;;
62711;SDS011;48772;55.586;37.730;2022-09-09T08:19:58;1.48;;;1.08;;
62711;SDS011;48772;55.586;37.730;2022-09-09T08:22:30;2.40;;;1.00;;
62711;SDS011;48772;55.586;37.730;2022-09-09T08:24:56;3.60;;;0.80;;
62711;SDS011;48772;55.586;37.730;2022-09-09T08:27:22;0.80;;;0.80;;
62711;SDS011;48772;55.586;37.730;2022-09-09T08:29:49;1.45;;;0.80;;
62711;SDS011;48772;55.586;37.730;2022-09-09T08:32:17;1.27;;;1.17;;
62711;SDS011;48772;55.586;37.730;2022-09-09T08:34:44;1.25;;;0.88;;
62711;SDS011;48772;55.586;37.730;2022-09-09T08:37:14;2.13;;;0.98;;
62711;SDS011;48772;55.586;37.730;2022-09-09T08:39:42;1.23;;;0.77;;
62711;SDS011;48772;55.586;37.730;2022-09-09T08:44:46;2.50;;;1.85;;
62711;SDS011;48772;55.586;37.730;2022-09-09T08:52:49;0.80;;;0.80;;
62711;SDS011;48772;55.586;37.730;2022-09-09T08:57:53;1.33;;;1.17;;
62711;SDS011;48772;55.586;37.730;2022-09-09T09:00:21;5.50;;;1.10;;
62711;SDS011;48772;55.586;37.730;2022-09-09T09:02:53;1.95;;;1.00;;
62711;SDS011;48772;55.586;37.730;2022-09-09T09:05:31;2.55;;;1.17;;
62711;SDS011;48772;55.586;37.730;2022-09-09T09:13:00;2.25;;;0.90;;
62711;SDS011;48772;55.586;37.730;2022-09-09T09:15:31;1.50;;;1.00;;
62711;SDS011;48772;55.586;37.730;2022-09-09T09:18:02;4.05;;;1.00;;
62711;SDS011;48772;55.586;37.730;2022-09-09T09:20:34;1.95;;;1.08;;
62711;SDS011;48772;55.586;37.730;2022-09-09T09:23:04;2.05;;;1.10;;
62711;SDS011;48772;55.586;37.730;2022-09-09T09:25:35;2.22;;;1.10;;
62711;SDS011;48772;55.586;37.730;2022-09-09T09:28:15;3.13;;;1.17;;
62711;SDS011;48772;55.586;37.730;2022-09-09T09:30:45;1.30;;;0.93;;
62711;SDS011;48772;55.586;37.730;2022-09-09T09:33:54;1.70;;;0.98;;
62711;SDS011;48772;55.586;37.730;2022-09-09T09:36:01;2.13;;;1.00;;
62711;SDS011;48772;55.586;37.730;2022-09-09T09:38:28;2.35;;;1.20;;
62711;SDS011;48772;55.586;37.730;2022-09-09T09:40:58;1.15;;;1.00;;
62711;SDS011;48772;55.586;37.730;2022-09-09T09:43:32;2.50;;;1.10;;
62711;SDS011;48772;55.586;37.730;2022-09-09T09:46:05;4.63;;;1.30;;
62711;SDS011;48772;55.586;37.730;2022-09-09T09:48:31;1.83;;;1.20;;
62711;SDS011;48772;55.586;37.730;2022-09-09T09:53:26;3.28;;;1.20;;
62711;SDS011;48772;55.586;37.730;2022-09-09T09:55:55;2.70;;;1.15;;
62711;SDS011;48772;55.586;37.730;2022-09-09T09:58:22;3.88;;;1.00;;
62711;SDS011;48772;55.586;37.730;2022-09-09T10:00:52;4.20;;;1.10;;
62711;SDS011;48772;55.586;37.730;2022-09-09T10:03:28;2.15;;;0.90;;
62711;SDS011;48772;55.586;37.730;2022-09-09T10:05:57;1.55;;;1.10;;
62711;SDS011;48772;55.586;37.730;2022-09-09T10:08:23;3.50;;;1.10;;
62711;SDS011;48772;55.586;37.730;2022-09-09T10:10:56;1.58;;;1.05;;
62711;SDS011;48772;55.586;37.730;2022-09-09T10:28:52;2.78;;;1.10;;
62711;SDS011;48772;55.586;37.730;2022-09-09T10:31:24;4.30;;;1.08;;
62711;SDS011;48772;55.586;37.730;2022-09-09T10:36:37;2.20;;;1.10;;
62711;SDS011;48772;55.586;37.730;2022-09-09T10:40:15;3.08;;;1.00;;
62711;SDS011;48772;55.586;37.730;2022-09-09T10:42:07;1.45;;;1.00;;
62711;SDS011;48772;55.586;37.730;2022-09-09T10:44:41;2.15;;;0.98;;
62711;SDS011;48772;55.586;37.730;2022-09-09T10:57:33;3.92;;;1.17;;
62711;SDS011;48772;55.586;37.730;2022-09-09T11:00:04;2.90;;;1.00;;
62711;SDS011;48772;55.586;37.730;2022-09-09T11:02:32;7.43;;;1.00;;
62711;SDS011;48772;55.586;37.730;2022-09-09T11:10:03;1.23;;;1.05;;
62711;SDS011;48772;55.586;37.730;2022-09-09T11:12:31;1.98;;;0.98;;
62711;SDS011;48772;55.586;37.730;2022-09-09T11:15:20;1.05;;;1.00;;
62711;SDS011;48772;55.586;37.730;2022-09-09T11:17:52;2.53;;;0.90;;
62711;SDS011;48772;55.586;37.730;2022-09-09T11:20:20;2.03;;;1.00;;
62711;SDS011;48772;55.586;37.730;2022-09-09T11:22:55;1.48;;;0.90;;
62711;SDS011;48772;55.586;37.730;2022-09-09T11:25:33;1.65;;;0.90;;
62711;SDS011;48772;55.586;37.730;2022-09-09T11:41:44;1.55;;;1.10;;
62711;SDS011;48772;55.586;37.730;2022-09-09T11:44:10;1.23;;;1.10;;
62711;SDS011;48772;55.586;37.730;2022-09-09T11:46:37;1.27;;;1.15;;
62711;SDS011;48772;55.586;37.730;2022-09-09T11:49:04;2.28;;;0.93;;
62711;SDS011;48772;55.586;37.730;2022-09-09T11:51:31;1.35;;;1.10;;
62711;SDS011;48772;55.586;37.730;2022-09-09T11:53:58;2.58;;;1.10;;
62711;SDS011;48772;55.586;37.730;2022-09-09T11:56:30;4.38;;;1.20;;
62711;SDS011;48772;55.586;37.730;2022-09-09T12:01:28;3.22;;;1.13;;
62711;SDS011;48772;55.586;37.730;2022-09-09T12:04:00;3.25;;;0.93;;
62711;SDS011;48772;55.586;37.730;2022-09-09T12:06:32;4.07;;;1.07;;
62711;SDS011;48772;55.586;37.730;2022-09-09T12:09:11;2.40;;;1.10;;
62711;SDS011;48772;55.586;37.730;2022-09-09T12:11:42;2.05;;;1.30;;
62711;SDS011;48772;55.586;37.730;2022-09-09T12:14:18;3.78;;;1.40;;
62711;SDS011;48772;55.586;37.730;2022-09-09T12:16:43;4.35;;;1.38;;
62711;SDS011;48772;55.586;37.730;2022-09-09T12:19:19;2.28;;;1.10;;
62711;SDS011;48772;55.586;37.730;2022-09-09T12:21:49;1.25;;;1.10;;
62711;SDS011;48772;55.586;37.730;2022-09-09T12:24:23;3.53;;;1.38;;
62711;SDS011;48772;55.586;37.730;2022-09-09T12:27:02;2.90;;;1.30;;
62711;SDS011;48772;55.586;37.730;2022-09-09T12:29:36;1.85;;;0.90;;
62711;SDS011;48772;55.586;37.730;2022-09-09T12:32:10;1.00;;;0.85;;
62711;SDS011;48772;55.586;37.730;2022-09-09T12:34:39;3.03;;;1.10;;
62711;SDS011;48772;55.586;37.730;2022-09-09T12:39:52;2.60;;;1.00;;
62711;SDS011;48772;55.586;37.730;2022-09-09T12:42:19;2.33;;;1.30;;
62711;SDS011;48772;55.586;37.730;2022-09-09T12:44:51;2.83;;;1.00;;
62711;SDS011;48772;55.586;37.730;2022-09-09T12:47:17;4.10;;;1.30;;
62711;SDS011;48772;55.586;37.730;2022-09-09T12:49:44;1.67;;;1.08;;
62711;SDS011;48772;55.586;37.730;2022-09-09T12:52:14;4.00;;;1.20;;
62711;SDS011;48772;55.586;37.730;2022-09-09T12:54:44;2.78;;;1.17;;
62711;SDS011;48772;55.586;37.730;2022-09-09T12:57:12;1.40;;;1.30;;
62711;SDS011;48772;55.586;37.730;2022-09-09T12:59:39;1.75;;;1.33;;
62711;SDS011;48772;55.586;37.730;2022-09-09T13:02:15;1.30;;;1.20;;
62711;SDS011;48772;55.586;37.730;2022-09-09T13:04:41;5.65;;;1.38;;
62711;SDS011;48772;55.586;37.730;2022-09-09T13:07:07;2.75;;;1.60;;
62711;SDS011;48772;55.586;37.730;2022-09-09T13:09:35;3.97;;;1.85;;
62711;SDS011;48772;55.586;37.730;2022-09-09T13:12:00;2.38;;;1.42;;
62711;SDS011;48772;55.586;37.730;2022-09-09T13:14:32;5.38;;;2.15;;
62711;SDS011;48772;55.586;37.730;2022-09-09T13:17:00;1.73;;;1.40;;
62711;SDS011;48772;55.586;37.730;2022-09-09T13:19:27;4.50;;;1.55;;
62711;SDS011;48772;55.586;37.730;2022-09-09T13:21:54;2.33;;;1.60;;
62711;SDS011;48772;55.586;37.730;2022-09-09T13:26:56;4.50;;;1.52;;
62711;SDS011;48772;55.586;37.730;2022-09-09T13:29:22;1.77;;;1.33;;
62711;SDS011;48772;55.586;37.730;2022-09-09T13:31:47;3.22;;;1.40;;
62711;SDS011;48772;55.586;37.730;2022-09-09T13:34:31;4.97;;;1.38;;
62711;SDS011;48772;55.586;37.730;2022-09-09T13:36:58;3.53;;;1.50;;
62711;SDS011;48772;55.586;37.730;2022-09-09T13:39:24;4.45;;;1.10;;
62711;SDS011;48772;55.586;37.730;2022-09-09T13:41:50;5.55;;;1.35;;
62711;SDS011;48772;55.586;37.730;2022-09-09T13:46:59;3.17;;;1.42;;
62711;SDS011;48772;55.586;37.730;2022-09-09T13:49:26;4.38;;;1.63;;
62711;SDS011;48772;55.586;37.730;2022-09-09T13:55:21;2.15;;;1.63;;
62711;SDS011;48772;55.586;37.730;2022-09-09T13:57:58;4.97;;;1.83;;
62711;SDS011;48772;55.586;37.730;2022-09-09T14:00:40;3.67;;;1.70;;
62711;SDS011;48772;55.586;37.730;2022-09-09T14:03:06;3.17;;;1.70;;
62711;SDS011;48772;55.586;37.730;2022-09-09T14:05:33;3.50;;;1.50;;
62711;SDS011;48772;55.586;37.730;2022-09-09T14:07:59;3.47;;;2.00;;
62711;SDS011;48772;55.586;37.730;2022-09-09T14:10:25;4.38;;;2.00;;
62711;SDS011;48772;55.586;37.730;2022-09-09T14:12:51;8.80;;;1.75;;
62711;SDS011;48772;55.586;37.730;2022-09-09T14:15:18;3.10;;;1.95;;
62711;SDS011;48772;55.586;37.730;2022-09-09T14:17:45;2.50;;;1.80;;
62711;SDS011;48772;55.586;37.730;2022-09-09T14:20:11;6.13;;;1.63;;
62711;SDS011;48772;55.586;37.730;2022-09-09T14:22:37;12.73;;;1.90;;
62711;SDS011;48772;55.586;37.730;2022-09-09T14:25:04;4.72;;;1.70;;
62711;SDS011;48772;55.586;37.730;2022-09-09T14:27:31;3.85;;;1.40;;
62711;SDS011;48772;55.586;37.730;2022-09-09T14:29:59;2.80;;;1.60;;
62711;SDS011;48772;55.586;37.730;2022-09-09T14:32:28;3.08;;;1.50;;
62711;SDS011;48772;55.586;37.730;2022-09-09T14:34:54;6.95;;;1.90;;
62711;SDS011;48772;55.586;37.730;2022-09-09T14:37:20;6.63;;;1.80;;
62711;SDS011;48772;55.586;37.730;2022-09-09T14:39:45;4.03;;;1.63;;
62711;SDS011;48772;55.586;37.730;2022-09-09T14:42:12;6.40;;;1.58;;
62711;SDS011;48772;55.586;37.730;2022-09-09T14:44:38;4.75;;;1.58;;
62711;SDS011;48772;55.586;37.730;2022-09-09T14:47:04;5.75;;;1.70;;
62711;SDS011;48772;55.586;37.730;2022-09-09T14:49:29;2.17;;;1.38;;
62711;SDS011;48772;55.586;37.730;2022-09-09T14:51:55;6.65;;;1.75;;
62711;SDS011;48772;55.586;37.730;2022-09-09T14:54:21;10.50;;;2.35;;
62711;SDS011;48772;55.586;37.730;2022-09-09T14:56:48;3.78;;;1.85;;
62711;SDS011;48772;55.586;37.730;2022-09-09T14:59:13;5.78;;;1.48;;
62711;SDS011;48772;55.586;37.730;2022-09-09T15:01:39;7.65;;;1.50;;
62711;SDS011;48772;55.586;37.730;2022-09-09T15:04:05;3.00;;;1.67;;
62711;SDS011;48772;55.586;37.730;2022-09-09T15:06:32;5.28;;;1.45;;
62711;SDS011;48772;55.586;37.730;2022-09-09T15:08:59;3.65;;;1.55;;
62711;SDS011;48772;55.586;37.730;2022-09-09T15:11:30;4.22;;;1.50;;
62711;SDS011;48772;55.586;37.730;2022-09-09T15:14:03;1.40;;;1.30;;
62711;SDS011;48772;55.586;37.730;2022-09-09T15:16:29;5.15;;;1.40;;
62711;SDS011;48772;55.586;37.730;2022-09-09T15:18:55;4.72;;;1.55;;
62711;SDS011;48772;55.586;37.730;2022-09-09T15:21:22;3.75;;;1.48;;
62711;SDS011;48772;55.586;37.730;2022-09-09T15:23:48;4.13;;;1.38;;
62711;SDS011;48772;55.586;37.730;2022-09-09T15:26:14;3.38;;;1.30;;
62711;SDS011;48772;55.586;37.730;2022-09-09T15:28:41;3.47;;;1.60;;
62711;SDS011;48772;55.586;37.730;2022-09-09T15:31:08;1.77;;;1.48;;
62711;SDS011;48772;55.586;37.730;2022-09-09T15:33:36;2.58;;;1.25;;
62711;SDS011;48772;55.586;37.730;2022-09-09T15:36:19;3.95;;;1.50;;
62711;SDS011;48772;55.586;37.730;2022-09-09T15:38:45;2.90;;;1.40;;
62711;SDS011;48772;55.586;37.730;2022-09-09T15:41:11;3.60;;;1.50;;
62711;SDS011;48772;55.586;37.730;2022-09-09T15:43:38;1.85;;;1.52;;
62711;SDS011;48772;55.586;37.730;2022-09-09T15:48:42;3.00;;;1.63;;
62711;SDS011;48772;55.586;37.730;2022-09-09T15:51:09;3.47;;;1.60;;
62711;SDS011;48772;55.586;37.730;2022-09-09T15:53:36;3.17;;;1.48;;
62711;SDS011;48772;55.586;37.730;2022-09-09T15:56:04;2.05;;;1.70;;
62711;SDS011;48772;55.586;37.730;2022-09-09T15:58:35;7.70;;;1.90;;
62711;SDS011;48772;55.586;37.730;2022-09-09T16:01:08;4.65;;;1.90;;
62711;SDS011;48772;55.586;37.730;2022-09-09T16:03:37;5.50;;;1.65;;
62711;SDS011;48772;55.586;37.730;2022-09-09T16:06:05;7.05;;;1.80;;
62711;SDS011;48772;55.586;37.730;2022-09-09T16:08:34;2.22;;;1.75;;
62711;SDS011;48772;55.586;37.730;2022-09-09T16:11:19;6.10;;;1.70;;
62711;SDS011;48772;55.586;37.730;2022-09-09T16:13:46;9.77;;;2.15;;
62711;SDS011;48772;55.586;37.730;2022-09-09T16:16:12;6.22;;;2.28;;
62711;SDS011;48772;55.586;37.730;2022-09-09T16:18:42;5.97;;;2.10;;
62711;SDS011;48772;55.586;37.730;2022-09-09T16:21:08;4.93;;;2.00;;
62711;SDS011;48772;55.586;37.730;2022-09-09T16:23:38;8.05;;;2.40;;
62711;SDS011;48772;55.586;37.730;2022-09-09T16:26:04;4.97;;;2.00;;
62711;SDS011;48772;55.586;37.730;2022-09-09T16:28:30;4.28;;;1.85;;
62711;SDS011;48772;55.586;37.730;2022-09-09T16:30:55;6.13;;;1.80;;
62711;SDS011;48772;55.586;37.730;2022-09-09T16:33:23;9.88;;;2.10;;
62711;SDS011;48772;55.586;37.730;2022-09-09T16:35:51;8.55;;;2.58;;
62711;SDS011;48772;55.586;37.730;2022-09-09T16:38:17;8.55;;;2.22;;
62711;SDS011;48772;55.586;37.730;2022-09-09T16:40:42;5.63;;;2.50;;
62711;SDS011;48772;55.586;37.730;2022-09-09T16:43:08;5.88;;;2.10;;
62711;SDS011;48772;55.586;37.730;2022-09-09T16:45:41;5.03;;;2.88;;